createdAt,value
2022-12-12T00:00:17.906Z,15.93
2022-12-12T00:02:50.443Z,18.75
2022-12-12T00:05:22.588Z,18.20
2022-12-12T00:07:55.229Z,15.50
2022-12-12T00:10:27.225Z,18.83
2022-12-12T00:12:59.820Z,14.82
2022-12-12T00:15:31.812Z,12.35
2022-12-12T00:18:04.271Z,15.88
2022-12-12T00:20:36.639Z,23.13
2022-12-12T00:23:09.049Z,14.47
2022-12-12T00:25:40.982Z,14.85
2022-12-12T00:28:13.331Z,14.23
2022-12-12T00:30:45.302Z,17.27
2022-12-12T00:33:17.790Z,15.48
2022-12-12T00:35:54.997Z,13.23
2022-12-12T00:38:27.334Z,14.77
2022-12-12T00:41:01.050Z,15.98
2022-12-12T00:43:33.839Z,19.60
2022-12-12T00:46:06.021Z,18.52
2022-12-12T00:48:38.409Z,16.83
2022-12-12T00:51:13.885Z,15.68
2022-12-12T00:53:48.526Z,20.50
2022-12-12T00:56:22.436Z,14.23
2022-12-12T00:58:54.848Z,15.90
2022-12-12T01:01:29.777Z,14.07
2022-12-12T01:04:02.375Z,15.32
2022-12-12T01:06:34.364Z,17.40
2022-12-12T01:09:06.855Z,16.33
2022-12-12T01:11:38.782Z,14.90
2022-12-12T01:14:12.502Z,13.23
2022-12-12T01:16:44.495Z,14.57
2022-12-12T01:19:16.857Z,15.27
2022-12-12T01:21:48.769Z,14.35
2022-12-12T01:24:21.115Z,13.85
2022-12-12T01:26:52.997Z,12.63
2022-12-12T01:29:25.450Z,16.05
2022-12-12T01:31:57.376Z,11.70
2022-12-12T01:34:29.787Z,12.13
2022-12-12T01:37:01.731Z,15.13
2022-12-12T01:39:34.980Z,12.10
2022-12-12T01:42:15.394Z,13.35
2022-12-12T01:44:54.054Z,12.18
2022-12-12T01:47:26.684Z,10.70
2022-12-12T01:50:09.011Z,13.82
2022-12-12T01:52:47.006Z,12.23
2022-12-12T01:55:23.317Z,11.40
2022-12-12T01:57:55.454Z,12.13
2022-12-12T02:00:27.997Z,11.68
2022-12-12T02:02:59.986Z,11.27
2022-12-12T02:05:49.388Z,14.37
2022-12-12T02:08:23.314Z,10.07
2022-12-12T02:10:55.989Z,13.15
2022-12-12T02:13:31.627Z,16.80
2022-12-12T02:16:12.294Z,12.55
2022-12-12T02:19:13.833Z,11.40
2022-12-12T02:22:19.278Z,11.35
2022-12-12T02:25:34.521Z,12.13
2022-12-12T02:29:08.149Z,11.63
2022-12-12T02:32:16.199Z,8.77
2022-12-12T02:35:12.628Z,14.47
2022-12-12T02:38:05.860Z,14.15
2022-12-12T02:41:01.585Z,12.05
2022-12-12T02:44:13.013Z,19.05
2022-12-12T02:47:17.668Z,25.38
2022-12-12T02:50:07.584Z,20.07
2022-12-12T02:52:42.991Z,13.27
2022-12-12T02:55:16.934Z,21.38
2022-12-12T02:57:50.954Z,18.38
2022-12-12T03:00:22.978Z,27.13
2022-12-12T03:03:42.774Z,17.00
2022-12-12T03:07:07.998Z,15.93
2022-12-12T03:10:24.875Z,19.65
2022-12-12T03:13:36.802Z,21.10
2022-12-12T03:16:39.007Z,23.50
2022-12-12T03:19:20.834Z,27.60
2022-12-12T03:22:07.263Z,13.82
2022-12-12T03:24:58.615Z,9.93
2022-12-12T03:27:37.342Z,11.30
2022-12-12T03:30:17.164Z,12.40
2022-12-12T03:33:04.213Z,9.27
2022-12-12T03:35:44.878Z,9.93
2022-12-12T03:38:27.193Z,11.05
2022-12-12T03:41:04.975Z,14.32
2022-12-12T03:43:48.721Z,17.70
2022-12-12T03:46:40.944Z,18.80
2022-12-12T03:49:28.457Z,20.45
2022-12-12T03:52:15.740Z,23.92
2022-12-12T03:55:12.745Z,21.90
2022-12-12T03:58:00.812Z,23.27
2022-12-12T04:00:37.651Z,26.00
2022-12-12T04:03:36.068Z,25.63
2022-12-12T04:06:28.680Z,26.45
2022-12-12T04:09:30.600Z,25.02
2022-12-12T04:12:48.773Z,29.08
2022-12-12T04:15:47.221Z,21.83
2022-12-12T04:18:53.615Z,25.33
2022-12-12T04:21:56.472Z,23.05
2022-12-12T04:24:49.339Z,28.77
2022-12-12T04:27:44.922Z,25.50
2022-12-12T04:30:17.459Z,20.60
2022-12-12T04:33:11.282Z,27.83
2022-12-12T04:35:48.997Z,32.38
2022-12-12T04:38:24.523Z,27.77
2022-12-12T04:40:59.002Z,27.35
2022-12-12T04:43:37.774Z,21.67
2022-12-12T04:46:19.093Z,21.35
2022-12-12T04:48:56.426Z,17.95
2022-12-12T04:51:35.449Z,17.17
2022-12-12T04:54:16.481Z,22.05
2022-12-12T04:56:57.283Z,20.40
2022-12-12T04:59:29.898Z,21.58
2022-12-12T05:02:30.652Z,19.85
2022-12-12T05:05:19.082Z,20.77
2022-12-12T05:08:21.633Z,22.15
2022-12-12T05:10:57.989Z,22.87
2022-12-12T05:13:34.727Z,18.20
2022-12-12T05:16:32.460Z,25.27
2022-12-12T05:19:05.620Z,16.13
2022-12-12T05:21:37.498Z,19.50
2022-12-12T05:24:10.464Z,20.70
2022-12-12T05:26:42.814Z,17.92
2022-12-12T05:29:14.724Z,20.08
2022-12-12T05:31:47.487Z,18.77
2022-12-12T05:34:21.421Z,14.63
2022-12-12T05:36:57.451Z,17.80
2022-12-12T05:39:29.339Z,14.25
2022-12-12T05:42:02.418Z,20.38
2022-12-12T05:44:34.481Z,15.82
2022-12-12T05:47:07.612Z,18.10
2022-12-12T05:49:40.055Z,16.83
2022-12-12T05:52:13.378Z,20.80
2022-12-12T05:54:54.286Z,19.02
2022-12-12T05:57:31.220Z,19.05
2022-12-12T06:00:05.514Z,18.17
2022-12-12T06:02:39.514Z,22.07
2022-12-12T06:05:11.909Z,22.50
2022-12-12T06:07:44.845Z,27.23
2022-12-12T06:10:16.782Z,21.17
2022-12-12T06:12:49.184Z,19.63
2022-12-12T06:15:21.165Z,20.93
2022-12-12T06:17:53.728Z,24.20
2022-12-12T06:20:25.974Z,20.98
2022-12-12T06:22:59.238Z,22.50
2022-12-12T06:25:31.345Z,22.83
2022-12-12T06:28:04.213Z,21.50
2022-12-12T06:30:36.099Z,21.38
2022-12-12T06:33:08.811Z,21.38
2022-12-12T06:35:44.555Z,23.08
2022-12-12T06:38:16.938Z,22.38
2022-12-12T06:40:48.820Z,27.17
2022-12-12T06:43:21.946Z,32.80
2022-12-12T06:46:02.639Z,29.17
2022-12-12T06:48:37.000Z,26.60
2022-12-12T06:51:13.579Z,26.65
2022-12-12T06:53:46.828Z,27.93
2022-12-12T06:56:25.154Z,27.13
2022-12-12T06:59:01.040Z,27.45
2022-12-12T07:01:34.428Z,23.98
2022-12-12T07:04:07.339Z,24.52
2022-12-12T07:06:39.639Z,19.90
2022-12-12T07:09:13.454Z,19.67
2022-12-12T07:11:47.612Z,21.85
2022-12-12T07:14:20.886Z,19.52
2022-12-12T07:16:52.854Z,20.38
2022-12-12T07:19:26.818Z,22.77
2022-12-12T07:22:05.701Z,23.70
2022-12-12T07:24:41.026Z,25.50
2022-12-12T07:27:19.972Z,20.65
2022-12-12T07:30:15.390Z,18.75
2022-12-12T07:32:48.111Z,19.30
2022-12-12T07:35:20.054Z,20.55
2022-12-12T07:37:53.008Z,21.25
2022-12-12T07:40:24.982Z,21.88
2022-12-12T07:42:57.685Z,23.10
2022-12-12T07:45:30.425Z,22.07
2022-12-12T07:48:02.361Z,25.17
2022-12-12T07:50:35.186Z,26.80
2022-12-12T07:53:08.054Z,23.33
2022-12-12T07:55:41.330Z,33.90
2022-12-12T07:58:13.742Z,26.53
2022-12-12T08:00:46.565Z,24.17
2022-12-12T08:03:18.489Z,23.48
2022-12-12T08:09:06.141Z,20.50
2022-12-12T08:11:46.901Z,24.63
2022-12-12T08:14:19.139Z,24.50
2022-12-12T08:16:52.634Z,26.15
2022-12-12T08:19:24.931Z,26.10
2022-12-12T08:21:57.750Z,23.27
2022-12-12T08:24:30.189Z,22.03
2022-12-12T08:27:03.227Z,23.83
2022-12-12T08:29:38.831Z,25.98
2022-12-12T08:35:03.179Z,25.85
2022-12-12T08:37:36.134Z,25.97
2022-12-12T08:40:09.957Z,30.90
2022-12-12T08:42:42.650Z,33.33
2022-12-12T08:45:16.508Z,35.58
2022-12-12T08:47:49.162Z,33.53
2022-12-12T08:50:22.386Z,26.30
2022-12-12T08:52:54.515Z,27.85
2022-12-12T08:55:27.415Z,29.90
2022-12-12T08:58:00.077Z,25.92
2022-12-12T09:00:34.149Z,38.65
2022-12-12T09:03:06.195Z,31.17
2022-12-12T09:05:44.607Z,29.13
2022-12-12T09:08:17.038Z,31.15
2022-12-12T09:10:51.248Z,37.08
2022-12-12T09:13:23.243Z,33.83
2022-12-12T09:15:56.171Z,30.37
2022-12-12T09:18:28.481Z,29.75
2022-12-12T09:21:02.285Z,31.25
2022-12-12T09:23:34.873Z,28.77
2022-12-12T09:26:09.974Z,26.40
2022-12-12T09:28:42.578Z,26.77
2022-12-12T09:31:15.582Z,28.40
2022-12-12T09:33:47.589Z,30.83
2022-12-12T09:36:21.492Z,26.67
2022-12-12T09:38:54.190Z,28.23
2022-12-12T09:41:27.833Z,27.63
2022-12-12T09:44:08.254Z,22.80
2022-12-12T09:47:03.125Z,25.83
2022-12-12T09:49:54.392Z,22.05
2022-12-12T09:52:33.832Z,21.00
2022-12-12T09:55:42.190Z,24.03
2022-12-12T09:58:50.197Z,24.77
2022-12-12T10:01:53.301Z,24.65
2022-12-12T10:04:50.810Z,28.02
2022-12-12T10:07:47.190Z,28.33
2022-12-12T10:10:45.006Z,25.20
2022-12-12T10:13:24.249Z,24.67
2022-12-12T10:16:16.038Z,27.67
2022-12-12T10:18:52.451Z,27.27
2022-12-12T10:21:30.561Z,24.15
2022-12-12T10:24:10.178Z,21.47
2022-12-12T10:26:44.455Z,24.48
2022-12-12T10:29:22.553Z,23.77
2022-12-12T10:32:13.498Z,26.90
2022-12-12T10:35:00.758Z,26.50
2022-12-12T10:37:45.359Z,29.47
2022-12-12T10:41:02.179Z,26.52
2022-12-12T10:43:50.085Z,26.90
2022-12-12T10:46:44.359Z,31.23
2022-12-12T10:49:20.870Z,27.77
2022-12-12T10:51:56.158Z,26.20
2022-12-12T10:54:29.362Z,27.55
2022-12-12T10:57:20.262Z,31.27
2022-12-12T10:59:56.797Z,26.83
2022-12-12T11:02:54.314Z,27.58
2022-12-12T11:05:36.145Z,28.23
2022-12-12T11:08:25.525Z,28.45
2022-12-12T11:11:19.464Z,28.58
2022-12-12T11:14:03.419Z,29.00
2022-12-12T11:16:44.681Z,29.92
2022-12-12T11:19:22.741Z,33.37
2022-12-12T11:21:56.583Z,31.23
2022-12-12T11:24:33.220Z,32.00
2022-12-12T11:27:07.867Z,28.38
2022-12-12T11:29:47.517Z,26.70
2022-12-12T11:32:30.109Z,30.00
2022-12-12T11:35:07.522Z,30.58
2022-12-12T11:37:49.742Z,26.38
2022-12-12T11:40:26.128Z,27.25
2022-12-12T11:43:17.077Z,32.00
2022-12-12T11:46:16.340Z,31.07
2022-12-12T11:48:54.433Z,30.17
2022-12-12T11:51:45.301Z,28.48
2022-12-12T11:54:34.402Z,29.70
2022-12-12T11:57:16.230Z,32.63
2022-12-12T12:00:03.840Z,25.10
2022-12-12T12:03:07.956Z,28.75
2022-12-12T12:05:49.165Z,30.35
2022-12-12T12:08:35.805Z,29.80
2022-12-12T12:11:24.084Z,27.00
2022-12-12T12:14:33.389Z,30.60
2022-12-12T12:17:22.202Z,26.70
2022-12-12T12:20:09.515Z,29.55
2022-12-12T12:22:59.266Z,29.63
2022-12-12T12:25:36.189Z,29.20
2022-12-12T12:28:29.924Z,32.03
2022-12-12T12:31:36.095Z,30.00
2022-12-12T12:34:42.229Z,26.45
2022-12-12T12:37:37.203Z,24.13
2022-12-12T12:40:54.604Z,26.77
2022-12-12T12:43:48.302Z,24.90
2022-12-12T12:46:48.475Z,29.83
2022-12-12T12:49:29.648Z,28.52
2022-12-12T12:52:22.121Z,26.35
2022-12-12T12:54:57.769Z,30.00
2022-12-12T12:57:40.941Z,37.87
2022-12-12T13:00:27.160Z,27.23
2022-12-12T13:03:25.092Z,33.03
2022-12-12T13:06:05.627Z,30.02
2022-12-12T13:08:58.151Z,32.40
2022-12-12T13:11:39.200Z,30.87
2022-12-12T13:14:33.994Z,28.10
2022-12-12T13:17:15.397Z,29.55
2022-12-12T13:19:53.451Z,29.17
2022-12-12T13:22:50.909Z,29.08
2022-12-12T13:25:39.853Z,28.43
2022-12-12T13:28:25.286Z,27.95
2022-12-12T13:31:23.066Z,24.13
2022-12-12T13:34:08.140Z,30.58
2022-12-12T13:36:45.772Z,36.45
2022-12-12T13:39:37.832Z,27.73
2022-12-12T13:42:12.789Z,24.33
2022-12-12T13:44:48.889Z,24.55
2022-12-12T13:47:24.822Z,30.30
2022-12-12T13:50:09.579Z,25.70
2022-12-12T13:52:43.173Z,26.73
2022-12-12T13:55:18.601Z,24.95
2022-12-12T13:57:59.973Z,33.95
2022-12-12T14:00:37.421Z,23.92
2022-12-12T14:03:13.280Z,22.42
2022-12-12T14:05:51.418Z,22.53
2022-12-12T14:08:32.243Z,24.60
2022-12-12T14:11:11.114Z,27.60
2022-12-12T14:13:47.756Z,25.42
2022-12-12T14:16:27.069Z,26.83
2022-12-12T14:19:06.948Z,30.23
2022-12-12T14:21:46.826Z,28.25
2022-12-12T14:24:35.233Z,29.52
2022-12-12T14:27:11.349Z,27.88
2022-12-12T14:29:46.092Z,28.35
2022-12-12T14:32:44.520Z,26.07
2022-12-12T14:35:27.670Z,30.38
2022-12-12T14:38:27.721Z,26.30
2022-12-12T14:41:13.043Z,27.65
2022-12-12T14:44:36.928Z,27.75
2022-12-12T14:46:49.654Z,37.70
2022-12-12T14:49:22.222Z,35.45
2022-12-12T14:51:57.150Z,35.20
2022-12-12T14:54:34.135Z,39.08
2022-12-12T14:57:07.738Z,75.13
2022-12-12T14:59:42.927Z,39.97
2022-12-12T15:02:32.957Z,41.88
2022-12-12T15:05:08.311Z,32.85
2022-12-12T15:07:40.391Z,35.63
2022-12-12T15:10:28.631Z,34.05
2022-12-12T15:13:02.186Z,36.63
2022-12-12T15:15:35.284Z,36.33
2022-12-12T15:18:09.472Z,32.55
2022-12-12T15:20:42.164Z,31.13
2022-12-12T15:23:19.462Z,33.38
2022-12-12T15:25:56.243Z,34.10
2022-12-12T15:28:28.630Z,32.03
2022-12-12T15:31:01.768Z,33.75
2022-12-12T15:33:38.839Z,35.00
2022-12-12T15:36:29.434Z,33.42
2022-12-12T15:39:13.298Z,31.23
2022-12-12T15:41:46.692Z,39.03
2022-12-12T15:44:20.819Z,42.53
2022-12-12T15:46:54.147Z,49.70
2022-12-12T15:49:42.108Z,43.88
2022-12-12T15:52:29.748Z,36.57
2022-12-12T15:55:05.399Z,39.80
2022-12-12T15:57:49.854Z,35.03
2022-12-12T16:00:37.546Z,66.22
2022-12-12T16:03:09.711Z,39.03
2022-12-12T16:05:43.177Z,39.47
2022-12-12T16:08:45.369Z,37.17
2022-12-12T16:11:42.457Z,35.72
2022-12-12T16:14:25.298Z,34.28
2022-12-12T16:17:41.043Z,34.90
2022-12-12T16:20:14.999Z,35.77
2022-12-12T16:22:49.626Z,37.78
2022-12-12T16:25:30.526Z,38.45
2022-12-12T16:28:10.354Z,38.45
2022-12-12T16:30:45.956Z,35.67
2022-12-12T16:33:30.366Z,34.20
2022-12-12T16:36:09.214Z,32.78
2022-12-12T16:38:42.668Z,30.98
2022-12-12T16:41:18.215Z,31.90
2022-12-12T16:43:51.365Z,34.45
2022-12-12T16:46:26.152Z,29.73
2022-12-12T16:49:04.687Z,31.08
2022-12-12T16:51:41.561Z,30.13
2022-12-12T16:54:18.183Z,35.28
2022-12-12T16:56:52.591Z,37.67
2022-12-12T16:59:25.445Z,30.20
2022-12-12T17:01:57.538Z,35.83
2022-12-12T17:04:31.931Z,30.83
2022-12-12T17:07:07.979Z,35.40
2022-12-12T17:09:41.699Z,36.58
2022-12-12T17:12:15.450Z,33.13
2022-12-12T17:17:40.973Z,30.95
2022-12-12T17:20:14.486Z,34.65
2022-12-12T17:22:46.822Z,37.35
2022-12-12T17:25:21.926Z,33.70
2022-12-12T17:27:54.695Z,32.28
2022-12-12T17:30:27.090Z,31.98
2022-12-12T17:33:17.283Z,35.92
2022-12-12T17:36:06.568Z,39.03
2022-12-12T17:38:38.507Z,32.20
2022-12-12T17:41:11.388Z,36.17
2022-12-12T17:43:43.396Z,33.83
2022-12-12T17:46:18.615Z,40.97
2022-12-12T17:48:51.442Z,36.08
2022-12-12T17:51:24.318Z,35.23
2022-12-12T17:53:59.243Z,33.10
2022-12-12T17:56:32.137Z,38.10
2022-12-12T17:59:10.191Z,36.20
2022-12-12T18:01:42.098Z,38.53
2022-12-12T18:04:14.902Z,38.90
2022-12-12T18:06:47.448Z,35.83
2022-12-12T18:09:20.538Z,35.55
2022-12-12T18:11:52.425Z,36.28
2022-12-12T18:14:25.104Z,40.92
2022-12-12T18:16:57.562Z,36.10
2022-12-12T18:19:30.130Z,35.15
2022-12-12T18:22:03.629Z,35.13
2022-12-12T18:24:36.079Z,35.13
2022-12-12T18:27:08.168Z,39.05
2022-12-12T18:29:42.030Z,41.20
2022-12-12T18:32:14.032Z,37.13
2022-12-12T18:35:19.380Z,39.05
2022-12-12T18:37:52.751Z,40.75
2022-12-12T18:40:28.267Z,36.92
2022-12-12T18:43:04.590Z,36.10
2022-12-12T18:45:38.422Z,38.80
2022-12-12T18:48:10.564Z,37.25
2022-12-12T18:50:43.421Z,35.25
2022-12-12T18:53:17.248Z,38.40
2022-12-12T18:55:52.217Z,37.13
2022-12-12T18:58:30.474Z,38.25
2022-12-12T19:01:10.294Z,37.30
2022-12-12T19:03:49.864Z,45.97
2022-12-12T19:06:36.401Z,39.17
2022-12-12T19:09:17.739Z,38.57
2022-12-12T19:11:50.467Z,39.35
2022-12-12T19:14:23.352Z,41.15
2022-12-12T19:17:15.032Z,40.30
2022-12-12T19:19:51.819Z,35.03
2022-12-12T19:22:44.967Z,36.10
2022-12-12T19:25:25.065Z,38.17
2022-12-12T19:28:01.377Z,38.97
2022-12-12T19:30:42.746Z,35.83
2022-12-12T19:33:34.998Z,31.45
2022-12-12T19:36:24.522Z,33.43
2022-12-12T19:39:00.236Z,36.35
2022-12-12T19:41:33.696Z,20.27
2022-12-12T19:44:08.728Z,41.47
2022-12-12T19:46:44.065Z,43.15
2022-12-12T19:49:17.474Z,36.10
2022-12-12T19:51:49.394Z,39.00
2022-12-12T19:54:22.493Z,42.13
2022-12-12T19:56:54.785Z,39.33
2022-12-12T19:59:30.304Z,36.60
2022-12-12T20:02:02.811Z,46.53
2022-12-12T20:04:35.656Z,39.35
2022-12-12T20:07:07.772Z,42.85
2022-12-12T20:09:43.131Z,40.05
2022-12-12T20:12:20.230Z,52.17
2022-12-12T20:14:54.478Z,38.83
2022-12-12T20:17:29.281Z,43.17
2022-12-12T20:20:03.017Z,49.83
2022-12-12T20:22:35.778Z,40.13
2022-12-12T20:28:04.560Z,35.67
2022-12-12T20:30:37.612Z,42.33
2022-12-12T20:33:12.444Z,42.70
2022-12-12T20:35:49.509Z,42.95
2022-12-12T20:38:28.877Z,45.72
2022-12-12T20:41:04.591Z,39.20
2022-12-12T20:43:42.213Z,44.35
2022-12-12T20:46:19.583Z,41.55
2022-12-12T20:48:53.577Z,40.35
2022-12-12T20:51:54.895Z,44.72
2022-12-12T20:55:43.426Z,43.37
2022-12-12T20:58:17.544Z,36.75
2022-12-12T21:00:51.297Z,36.45
2022-12-12T21:03:26.454Z,43.88
2022-12-12T21:06:00.761Z,41.20
2022-12-12T21:08:32.954Z,38.20
2022-12-12T21:11:06.453Z,40.28
2022-12-12T21:13:38.809Z,45.78
2022-12-12T21:16:20.025Z,44.33
2022-12-12T21:18:56.374Z,40.42
2022-12-12T21:21:29.373Z,39.40
2022-12-12T21:24:02.329Z,39.90
2022-12-12T21:26:35.336Z,43.92
2022-12-12T21:29:12.274Z,43.58
2022-12-12T21:31:50.956Z,39.13
2022-12-12T21:34:24.596Z,41.77
2022-12-12T21:36:57.504Z,38.80
2022-12-12T21:39:29.868Z,38.33
2022-12-12T21:42:02.612Z,44.10
2022-12-12T21:44:35.262Z,43.40
2022-12-12T21:47:08.018Z,34.83
2022-12-12T21:49:40.004Z,40.22
2022-12-12T21:52:14.324Z,40.08
2022-12-12T21:54:46.235Z,37.90
2022-12-12T21:57:24.675Z,38.25
2022-12-12T21:59:56.988Z,37.00
2022-12-12T22:02:29.790Z,36.88
2022-12-12T22:05:01.883Z,39.13
2022-12-12T22:07:58.867Z,38.13
2022-12-12T22:10:31.222Z,39.63
2022-12-12T22:13:03.129Z,39.03
2022-12-12T22:15:35.864Z,37.80
2022-12-12T22:18:07.784Z,42.20
2022-12-12T22:20:40.561Z,39.10
2022-12-12T22:23:13.316Z,35.35
2022-12-12T22:25:45.646Z,44.30
2022-12-12T22:28:18.057Z,38.22
2022-12-12T22:30:50.777Z,41.00
2022-12-12T22:33:22.830Z,36.08
2022-12-12T22:35:59.900Z,40.22
2022-12-12T22:38:37.860Z,43.07
2022-12-12T22:41:10.702Z,40.00
2022-12-12T22:43:43.632Z,37.17
2022-12-12T22:46:16.635Z,40.08
2022-12-12T22:48:48.866Z,45.20
2022-12-12T22:51:26.350Z,48.37
2022-12-12T22:54:05.614Z,41.28
2022-12-12T22:56:39.513Z,35.95
2022-12-12T22:59:14.291Z,31.30
2022-12-12T23:01:46.216Z,30.40
2022-12-12T23:04:19.088Z,36.93
2022-12-12T23:06:51.475Z,33.90
2022-12-12T23:09:26.459Z,36.38
2022-12-12T23:11:58.620Z,37.15
2022-12-12T23:14:31.736Z,38.83
2022-12-12T23:19:59.703Z,34.15
2022-12-12T23:22:31.641Z,26.95
2022-12-12T23:25:05.312Z,41.47
2022-12-12T23:27:37.201Z,33.28
2022-12-12T23:30:11.311Z,34.90
2022-12-12T23:32:43.214Z,33.80
2022-12-12T23:35:16.837Z,39.30
2022-12-12T23:37:48.832Z,41.03
2022-12-12T23:40:21.617Z,40.92
2022-12-12T23:42:53.509Z,47.63
2022-12-12T23:45:26.301Z,44.88
2022-12-12T23:47:58.228Z,40.60
2022-12-12T23:50:30.998Z,43.08
2022-12-12T23:53:09.007Z,45.25
2022-12-12T23:55:43.551Z,44.77
2022-12-12T23:58:15.959Z,47.42
